createdAt,value
2018-03-07T00:01:58.329Z,5.30
2018-03-07T00:04:32.883Z,5.30
2018-03-07T00:07:06.851Z,5.30
2018-03-07T00:09:41.310Z,5.30
2018-03-07T00:12:15.079Z,5.30
2018-03-07T00:14:48.704Z,5.30
2018-03-07T00:17:23.077Z,5.30
2018-03-07T00:19:56.911Z,5.20
2018-03-07T00:22:32.226Z,5.20
2018-03-07T00:25:06.164Z,5.20
2018-03-07T00:27:40.636Z,5.20
2018-03-07T00:30:15.092Z,5.20
2018-03-07T00:32:48.811Z,5.20
2018-03-07T00:35:22.607Z,5.10
2018-03-07T00:37:56.453Z,5.10
2018-03-07T00:40:30.787Z,5.10
2018-03-07T00:43:04.816Z,5.10
2018-03-07T00:45:39.286Z,5.10
2018-03-07T00:48:13.098Z,5.10
2018-03-07T00:50:47.560Z,5.00
2018-03-07T00:53:21.469Z,5.00
2018-03-07T00:55:55.307Z,5.00
2018-03-07T00:58:30.524Z,5.00
2018-03-07T01:01:04.867Z,5.00
2018-03-07T01:03:38.987Z,5.00
2018-03-07T01:06:12.607Z,5.10
2018-03-07T01:08:46.360Z,5.00
2018-03-07T01:11:20.000Z,5.00
2018-03-07T01:13:54.443Z,5.00
2018-03-07T01:16:28.228Z,4.90
2018-03-07T01:19:01.996Z,4.90
2018-03-07T01:21:35.628Z,4.90
2018-03-07T01:24:09.312Z,4.90
2018-03-07T01:26:43.050Z,4.90
2018-03-07T01:29:16.938Z,4.80
2018-03-07T01:31:52.200Z,4.80
2018-03-07T01:34:25.921Z,4.70
2018-03-07T01:37:00.452Z,4.80
2018-03-07T01:39:34.312Z,4.70
2018-03-07T01:42:08.010Z,4.80
2018-03-07T01:44:41.804Z,4.70
2018-03-07T01:47:15.432Z,4.70
2018-03-07T01:49:49.994Z,4.70
2018-03-07T01:52:23.875Z,4.60
2018-03-07T01:54:57.549Z,4.60
2018-03-07T01:57:31.307Z,4.70
2018-03-07T02:00:05.652Z,4.70
2018-03-07T02:02:39.448Z,4.60
2018-03-07T02:05:13.116Z,4.60
2018-03-07T02:07:47.088Z,4.70
2018-03-07T02:13:01.305Z,4.70
2018-03-07T02:15:35.620Z,4.70
2018-03-07T02:18:10.080Z,4.70
2018-03-07T02:20:43.898Z,4.70
2018-03-07T02:23:17.693Z,4.70
2018-03-07T02:25:51.310Z,4.70
2018-03-07T02:28:25.697Z,4.70
2018-03-07T02:30:59.489Z,4.60
2018-03-07T02:33:33.831Z,4.60
2018-03-07T02:36:20.039Z,4.60
2018-03-07T02:38:54.324Z,4.60
2018-03-07T02:41:28.360Z,4.70
2018-03-07T02:44:03.475Z,4.70
2018-03-07T02:46:38.099Z,4.70
2018-03-07T02:49:11.822Z,4.70
2018-03-07T02:51:46.946Z,4.70
2018-03-07T02:54:20.988Z,4.70
2018-03-07T02:56:54.650Z,4.70
2018-03-07T02:59:29.088Z,4.70
2018-03-07T03:02:03.105Z,4.70
2018-03-07T03:04:36.723Z,4.80
2018-03-07T03:07:11.232Z,4.80
2018-03-07T03:09:45.898Z,4.70
2018-03-07T03:12:20.083Z,4.70
2018-03-07T03:14:54.394Z,4.70
2018-03-07T03:17:28.071Z,4.60
2018-03-07T03:20:02.004Z,4.50
2018-03-07T03:22:37.114Z,4.50
2018-03-07T03:25:11.038Z,4.50
2018-03-07T03:27:45.436Z,4.50
2018-03-07T03:30:19.104Z,4.40
2018-03-07T03:32:52.745Z,4.40
2018-03-07T03:35:26.497Z,4.40
2018-03-07T03:38:00.350Z,4.40
2018-03-07T03:40:34.876Z,4.40
2018-03-07T03:43:08.561Z,4.40
2018-03-07T03:45:43.046Z,4.40
2018-03-07T03:48:16.822Z,4.50
2018-03-07T03:50:50.524Z,4.50
2018-03-07T03:53:25.035Z,4.60
2018-03-07T03:55:59.528Z,4.50
2018-03-07T03:58:34.082Z,4.50
2018-03-07T04:01:08.762Z,4.50
2018-03-07T04:03:44.036Z,4.50
2018-03-07T04:06:18.271Z,4.50
2018-03-07T04:08:51.892Z,4.50
2018-03-07T04:11:25.455Z,4.50
2018-03-07T04:13:59.918Z,4.50
2018-03-07T04:16:33.995Z,4.50
2018-03-07T04:19:07.654Z,4.00
2018-03-07T04:21:41.329Z,4.60
2018-03-07T04:24:15.046Z,4.50
2018-03-07T04:26:48.841Z,4.50
2018-03-07T04:29:23.442Z,4.50
2018-03-07T04:31:57.299Z,4.50
2018-03-07T04:34:31.788Z,4.40
2018-03-07T04:37:05.611Z,4.40
2018-03-07T04:39:39.501Z,4.40
2018-03-07T04:42:13.205Z,4.50
2018-03-07T04:44:47.723Z,4.40
2018-03-07T04:47:21.447Z,4.40
2018-03-07T04:49:55.165Z,4.40
2018-03-07T04:52:29.265Z,4.90
2018-03-07T04:55:03.350Z,4.50
2018-03-07T04:57:37.645Z,4.40
2018-03-07T05:00:11.693Z,4.40
2018-03-07T05:02:46.002Z,4.50
2018-03-07T05:05:19.877Z,4.40
2018-03-07T05:07:54.225Z,4.40
2018-03-07T05:10:28.135Z,4.40
2018-03-07T05:13:02.009Z,4.40
2018-03-07T05:15:36.284Z,4.40
2018-03-07T05:18:10.088Z,4.50
2018-03-07T05:20:44.550Z,4.50
2018-03-07T05:23:18.308Z,4.40
2018-03-07T05:25:52.104Z,4.50
2018-03-07T05:28:25.744Z,4.40
2018-03-07T05:30:59.515Z,4.40
2018-03-07T05:33:33.187Z,4.50
2018-03-07T05:36:07.736Z,4.50
2018-03-07T05:38:41.792Z,4.50
2018-03-07T05:41:15.288Z,6.30
2018-03-07T05:43:48.973Z,4.50
2018-03-07T05:46:22.628Z,4.50
2018-03-07T05:48:56.449Z,4.40
2018-03-07T05:51:29.924Z,4.50
2018-03-07T05:54:03.685Z,4.50
2018-03-07T05:56:37.305Z,4.50
2018-03-07T05:59:10.980Z,4.50
2018-03-07T06:01:44.794Z,4.40
2018-03-07T06:04:18.454Z,4.50
2018-03-07T06:06:52.996Z,4.50
2018-03-07T06:09:26.816Z,4.50
2018-03-07T06:12:08.482Z,4.50
2018-03-07T06:14:43.162Z,4.50
2018-03-07T06:17:16.990Z,4.60
2018-03-07T06:19:51.460Z,4.60
2018-03-07T06:22:26.308Z,4.70
2018-03-07T06:24:59.871Z,4.70
2018-03-07T06:27:33.689Z,4.70
2018-03-07T06:30:07.363Z,4.70
2018-03-07T06:32:41.042Z,4.80
2018-03-07T06:35:16.195Z,4.90
2018-03-07T06:37:50.491Z,4.90
2018-03-07T06:40:24.249Z,5.00
2018-03-07T06:42:58.832Z,5.10
2018-03-07T06:45:33.750Z,5.10
2018-03-07T06:48:07.587Z,5.20
2018-03-07T06:50:41.234Z,5.20
2018-03-07T06:53:15.124Z,5.20
2018-03-07T06:55:49.018Z,5.40
2018-03-07T06:58:22.883Z,5.30
2018-03-07T07:00:57.503Z,5.40
2018-03-07T07:03:31.281Z,5.50
2018-03-07T07:06:05.009Z,5.70
2018-03-07T07:08:38.822Z,5.70
2018-03-07T07:11:13.203Z,5.90
2018-03-07T07:13:47.148Z,5.90
2018-03-07T07:16:20.740Z,6.10
2018-03-07T07:18:55.463Z,6.10
2018-03-07T07:21:29.251Z,6.10
2018-03-07T07:24:04.239Z,6.20
2018-03-07T07:26:37.942Z,6.20
2018-03-07T07:29:12.668Z,6.40
2018-03-07T07:31:47.629Z,6.40
2018-03-07T07:34:21.471Z,6.50
2018-03-07T07:36:56.631Z,6.60
2018-03-07T07:39:30.584Z,6.70
2018-03-07T07:42:05.869Z,6.80
2018-03-07T07:44:42.869Z,6.90
2018-03-07T07:47:16.616Z,6.90
2018-03-07T07:49:50.290Z,6.80
2018-03-07T07:52:23.962Z,6.90
2018-03-07T07:54:58.407Z,7.00
2018-03-07T07:57:33.037Z,7.00
2018-03-07T08:00:07.015Z,7.00
2018-03-07T08:02:40.924Z,7.00
2018-03-07T08:05:15.282Z,7.10
2018-03-07T08:07:49.455Z,7.10
2018-03-07T08:10:23.287Z,7.20
2018-03-07T08:12:57.118Z,7.20
2018-03-07T08:15:31.495Z,7.20
2018-03-07T08:18:06.260Z,7.20
2018-03-07T08:20:40.959Z,7.20
2018-03-07T08:23:15.051Z,7.20
2018-03-07T08:25:48.991Z,7.30
2018-03-07T08:28:22.590Z,7.30
2018-03-07T08:30:56.345Z,7.30
2018-03-07T08:33:30.102Z,7.40
2018-03-07T08:36:03.779Z,7.40
2018-03-07T08:38:38.213Z,7.50
2018-03-07T08:41:12.205Z,7.50
2018-03-07T08:43:46.755Z,7.70
2018-03-07T08:46:20.757Z,7.60
2018-03-07T08:48:54.538Z,7.70
2018-03-07T08:51:29.089Z,7.80
2018-03-07T08:54:03.261Z,7.80
2018-03-07T08:56:37.331Z,7.80
2018-03-07T08:59:10.982Z,7.80
2018-03-07T09:01:44.857Z,7.90
2018-03-07T09:04:18.840Z,8.00
2018-03-07T09:06:52.475Z,8.10
2018-03-07T09:09:27.090Z,8.30
2018-03-07T09:12:01.118Z,8.30
2018-03-07T09:14:34.907Z,8.50
2018-03-07T09:17:08.733Z,8.70
2018-03-07T09:19:42.284Z,9.00
2018-03-07T09:22:15.921Z,9.20
2018-03-07T09:24:49.734Z,9.50
2018-03-07T09:27:23.455Z,9.70
2018-03-07T09:29:57.370Z,10.00
2018-03-07T09:32:32.161Z,10.30
2018-03-07T09:35:06.164Z,10.30
2018-03-07T09:37:39.872Z,10.30
2018-03-07T09:40:14.444Z,10.20
2018-03-07T09:42:48.458Z,10.20
2018-03-07T09:45:22.980Z,10.20
2018-03-07T09:47:58.604Z,10.40
2018-03-07T09:50:32.928Z,10.50
2018-03-07T09:53:08.436Z,10.60
2018-03-07T09:55:43.051Z,10.60
2018-03-07T09:58:18.449Z,10.70
2018-03-07T10:00:53.735Z,10.80
2018-03-07T10:03:27.679Z,10.80
2018-03-07T10:06:01.452Z,10.80
2018-03-07T10:08:35.074Z,10.80
2018-03-07T10:11:09.644Z,10.80
2018-03-07T10:13:43.497Z,10.80
2018-03-07T10:16:17.816Z,11.20
2018-03-07T10:18:51.667Z,11.20
2018-03-07T10:21:25.984Z,10.90
2018-03-07T10:24:00.253Z,11.20
2018-03-07T10:26:34.007Z,11.20
2018-03-07T10:29:07.758Z,10.90
2018-03-07T10:31:41.554Z,10.90
2018-03-07T10:34:16.326Z,11.10
2018-03-07T10:36:50.327Z,11.10
2018-03-07T10:39:24.119Z,11.20
2018-03-07T10:41:57.941Z,11.40
2018-03-07T10:44:32.442Z,12.00
2018-03-07T10:47:06.446Z,11.90
2018-03-07T10:49:40.860Z,12.80
2018-03-07T10:52:14.833Z,12.70
2018-03-07T10:54:49.368Z,13.60
2018-03-07T10:57:24.061Z,13.90
2018-03-07T10:59:58.236Z,13.90
2018-03-07T11:02:32.283Z,14.20
2018-03-07T11:05:06.195Z,14.50
2018-03-07T11:07:40.075Z,14.50
2018-03-07T11:10:14.563Z,14.40
2018-03-07T11:12:48.353Z,14.40
2018-03-07T11:15:22.213Z,14.30
2018-03-07T11:17:56.094Z,14.30
2018-03-07T11:20:29.828Z,14.50
2018-03-07T11:23:04.771Z,14.70
2018-03-07T11:25:39.164Z,14.90
2018-03-07T11:28:12.996Z,14.90
2018-03-07T11:30:46.691Z,15.60
2018-03-07T11:33:20.537Z,16.00
2018-03-07T11:35:54.320Z,16.00
2018-03-07T11:38:28.899Z,16.70
2018-03-07T11:41:02.923Z,16.70
2018-03-07T11:43:36.436Z,16.70
2018-03-07T11:46:11.103Z,16.60
2018-03-07T11:48:44.747Z,16.50
2018-03-07T11:51:18.451Z,16.50
2018-03-07T11:53:52.512Z,16.00
2018-03-07T11:56:26.765Z,16.00
2018-03-07T11:59:01.300Z,15.50
2018-03-07T12:01:35.774Z,15.30
2018-03-07T12:04:09.995Z,15.30
2018-03-07T12:06:44.362Z,15.20
2018-03-07T12:09:18.178Z,15.10
2018-03-07T12:11:51.859Z,14.90
2018-03-07T12:14:25.946Z,14.70
2018-03-07T12:17:00.257Z,14.70
2018-03-07T12:19:34.171Z,14.50
2018-03-07T12:22:07.695Z,14.50
2018-03-07T12:24:41.413Z,14.10
2018-03-07T12:27:16.305Z,14.30
2018-03-07T12:29:51.051Z,14.60
2018-03-07T12:32:25.759Z,14.80
2018-03-07T12:35:00.620Z,15.00
2018-03-07T12:37:34.496Z,15.40
2018-03-07T12:40:08.143Z,15.80
2018-03-07T12:42:42.224Z,16.10
2018-03-07T12:45:17.163Z,16.10
2018-03-07T12:47:51.222Z,15.80
2018-03-07T12:50:25.685Z,15.40
2018-03-07T12:52:59.668Z,15.30
2018-03-07T12:55:33.262Z,15.20
2018-03-07T12:58:07.820Z,15.40
2018-03-07T13:00:42.007Z,15.40
2018-03-07T13:03:15.688Z,15.60
2018-03-07T13:05:50.278Z,16.00
2018-03-07T13:08:24.887Z,16.00
2018-03-07T13:10:58.907Z,16.00
2018-03-07T13:13:32.678Z,15.90
2018-03-07T13:16:07.336Z,15.70
2018-03-07T13:18:41.715Z,15.70
2018-03-07T13:21:15.836Z,15.50
2018-03-07T13:23:50.658Z,14.90
2018-03-07T13:26:24.494Z,14.90
2018-03-07T13:28:58.090Z,14.70
2018-03-07T13:31:32.608Z,14.60
2018-03-07T13:34:06.849Z,14.50
2018-03-07T13:36:41.163Z,14.30
2018-03-07T13:39:15.335Z,14.30
2018-03-07T13:41:49.994Z,14.10
2018-03-07T13:44:24.616Z,13.60
2018-03-07T13:46:58.687Z,13.60
2018-03-07T13:49:32.441Z,13.40
2018-03-07T13:52:06.167Z,13.30
2018-03-07T13:54:40.051Z,13.20
2018-03-07T13:57:13.614Z,13.00
2018-03-07T13:59:47.300Z,12.80
2018-03-07T14:02:21.876Z,12.50
2018-03-07T14:04:55.852Z,12.50
2018-03-07T14:07:29.475Z,12.40
2018-03-07T14:10:04.097Z,12.00
2018-03-07T14:12:38.845Z,11.90
2018-03-07T14:15:13.280Z,11.90
2018-03-07T14:17:47.567Z,11.60
2018-03-07T14:20:21.887Z,11.50
2018-03-07T14:22:55.752Z,11.50
2018-03-07T14:25:29.675Z,11.40
2018-03-07T14:28:03.487Z,11.30
2018-03-07T14:30:37.101Z,11.30
2018-03-07T14:33:10.903Z,11.30
2018-03-07T14:35:45.525Z,11.20
2018-03-07T14:38:19.430Z,11.20
2018-03-07T14:40:53.183Z,11.10
2018-03-07T14:43:26.997Z,11.10
2018-03-07T14:46:00.734Z,11.00
2018-03-07T14:48:34.411Z,11.00
2018-03-07T14:51:08.474Z,10.80
2018-03-07T14:53:42.049Z,10.80
2018-03-07T14:56:15.719Z,10.80
2018-03-07T14:58:50.320Z,10.70
2018-03-07T15:01:24.223Z,10.70
2018-03-07T15:03:57.988Z,10.80
2018-03-07T15:06:31.539Z,10.80
2018-03-07T15:09:05.308Z,10.90
2018-03-07T15:11:39.004Z,11.10
2018-03-07T15:14:12.635Z,11.10
2018-03-07T15:16:46.415Z,11.20
2018-03-07T15:19:20.355Z,11.30
2018-03-07T15:21:53.974Z,11.40
2018-03-07T15:24:27.780Z,11.50
2018-03-07T15:27:01.563Z,11.60
2018-03-07T15:29:35.419Z,11.60
2018-03-07T15:34:49.996Z,11.80
2018-03-07T15:37:23.707Z,11.90
2018-03-07T15:39:57.565Z,11.90
2018-03-07T15:42:31.274Z,12.00
2018-03-07T15:45:04.909Z,12.00
2018-03-07T15:47:38.628Z,11.90
2018-03-07T15:50:13.188Z,11.80
2018-03-07T15:52:47.222Z,11.80
2018-03-07T15:55:21.165Z,11.60
2018-03-07T15:57:54.852Z,11.60
2018-03-07T16:00:29.295Z,11.30
2018-03-07T16:03:03.130Z,11.30
2018-03-07T16:05:37.447Z,11.20
2018-03-07T16:08:11.444Z,11.20
2018-03-07T16:10:45.196Z,11.10
2018-03-07T16:13:19.784Z,11.10
2018-03-07T16:15:54.646Z,11.00
2018-03-07T16:18:29.323Z,11.00
2018-03-07T16:21:03.317Z,10.90
2018-03-07T16:23:36.881Z,10.90
2018-03-07T16:26:10.581Z,10.80
2018-03-07T16:28:44.359Z,10.70
2018-03-07T16:31:18.095Z,10.60
2018-03-07T16:33:52.657Z,10.50
2018-03-07T16:36:26.671Z,10.40
2018-03-07T16:39:01.000Z,10.20
2018-03-07T16:41:35.783Z,10.30
2018-03-07T16:44:10.565Z,10.20
2018-03-07T16:46:45.236Z,10.10
2018-03-07T16:49:19.248Z,10.00
2018-03-07T16:51:52.890Z,9.90
2018-03-07T16:54:26.656Z,9.90
2018-03-07T16:57:00.335Z,9.70
2018-03-07T16:59:34.059Z,9.60
2018-03-07T17:02:07.797Z,9.50
2018-03-07T17:04:41.548Z,9.50
2018-03-07T17:07:15.201Z,9.40
2018-03-07T17:09:49.022Z,9.30
2018-03-07T17:12:22.552Z,9.20
2018-03-07T17:14:56.410Z,9.10
2018-03-07T17:17:30.019Z,9.00
2018-03-07T17:20:04.579Z,8.80
2018-03-07T17:22:38.410Z,8.80
2018-03-07T17:25:12.248Z,8.80
2018-03-07T17:27:46.683Z,8.70
2018-03-07T17:30:20.736Z,8.70
2018-03-07T17:32:54.334Z,8.60
2018-03-07T17:35:28.104Z,8.70
2018-03-07T17:38:02.622Z,8.70
2018-03-07T17:40:36.430Z,8.60
2018-03-07T17:43:11.030Z,8.60
2018-03-07T17:45:44.938Z,8.60
2018-03-07T17:48:19.201Z,8.70
2018-03-07T17:50:54.382Z,8.70
2018-03-07T17:53:28.292Z,8.70
2018-03-07T17:56:02.041Z,8.80
2018-03-07T17:58:35.636Z,8.80
2018-03-07T18:01:09.296Z,8.80
2018-03-07T18:03:42.977Z,8.80
2018-03-07T18:06:16.701Z,8.80
2018-03-07T18:08:51.172Z,8.80
2018-03-07T18:11:25.211Z,8.80
2018-03-07T18:13:59.123Z,8.70
2018-03-07T18:16:33.699Z,8.80
2018-03-07T18:19:07.628Z,8.80
2018-03-07T18:21:41.247Z,8.80
2018-03-07T18:24:14.938Z,8.80
2018-03-07T18:26:48.741Z,8.80
2018-03-07T18:29:23.111Z,8.80
2018-03-07T18:31:57.873Z,8.80
2018-03-07T18:34:32.733Z,8.80
2018-03-07T18:37:06.727Z,8.80
2018-03-07T18:39:40.529Z,8.80
2018-03-07T18:42:14.272Z,8.70
2018-03-07T18:44:47.803Z,8.70
2018-03-07T18:47:21.590Z,8.70
2018-03-07T18:49:55.246Z,8.70
2018-03-07T18:52:29.050Z,8.80
2018-03-07T18:55:02.783Z,8.70
2018-03-07T18:57:37.337Z,8.70
2018-03-07T19:00:11.291Z,8.70
2018-03-07T19:02:46.573Z,8.80
2018-03-07T19:05:20.748Z,8.90
2018-03-07T19:07:55.273Z,8.90
2018-03-07T19:10:29.211Z,8.90
2018-03-07T19:13:03.716Z,8.80
2018-03-07T19:15:37.781Z,8.70
2018-03-07T19:18:11.404Z,8.70
2018-03-07T19:20:45.196Z,8.60
2018-03-07T19:23:19.239Z,8.50
2018-03-07T19:25:52.979Z,8.50
2018-03-07T19:28:26.648Z,8.40
2018-03-07T19:31:00.278Z,8.50
2018-03-07T19:33:34.078Z,8.50
2018-03-07T19:36:07.616Z,8.50
2018-03-07T19:38:41.264Z,8.40
2018-03-07T19:41:15.772Z,8.40
2018-03-07T19:43:49.906Z,8.40
2018-03-07T19:46:23.771Z,8.40
2018-03-07T19:48:57.477Z,8.20
2018-03-07T19:51:31.216Z,8.30
2018-03-07T19:54:05.552Z,8.20
2018-03-07T19:56:40.263Z,8.20
2018-03-07T19:59:14.393Z,8.20
2018-03-07T20:01:48.740Z,8.20
2018-03-07T20:04:22.739Z,8.20
2018-03-07T20:06:57.983Z,8.30
2018-03-07T20:09:32.369Z,8.30
2018-03-07T20:12:06.409Z,8.20
2018-03-07T20:14:41.394Z,8.20
2018-03-07T20:17:15.413Z,8.20
2018-03-07T20:19:51.475Z,8.20
2018-03-07T20:22:26.731Z,8.20
2018-03-07T20:25:00.327Z,8.20
2018-03-07T20:27:35.012Z,8.10
2018-03-07T20:30:09.952Z,8.10
2018-03-07T20:32:44.605Z,7.90
2018-03-07T20:35:18.438Z,7.80
2018-03-07T20:37:52.232Z,7.80
2018-03-07T20:40:26.824Z,7.90
2018-03-07T20:43:01.495Z,7.80
2018-03-07T20:45:35.289Z,7.80
2018-03-07T20:48:09.586Z,7.80
2018-03-07T20:50:43.616Z,7.80
2018-03-07T20:53:17.314Z,7.70
2018-03-07T20:55:51.023Z,7.70
2018-03-07T20:58:25.646Z,7.60
2018-03-07T21:00:59.464Z,7.60
2018-03-07T21:03:33.247Z,7.60
2018-03-07T21:06:06.951Z,7.60
2018-03-07T21:08:41.470Z,7.60
2018-03-07T21:11:15.855Z,7.60
2018-03-07T21:13:50.778Z,7.60
2018-03-07T21:19:00.481Z,7.50
2018-03-07T21:21:34.140Z,7.50
2018-03-07T21:24:07.892Z,7.50
2018-03-07T21:26:42.282Z,7.60
2018-03-07T21:29:17.007Z,7.60
2018-03-07T21:31:51.086Z,7.60
2018-03-07T21:34:24.720Z,7.60
2018-03-07T21:36:58.480Z,7.60
2018-03-07T21:39:32.464Z,7.50
2018-03-07T21:42:06.037Z,7.50
2018-03-07T21:44:39.611Z,7.50
2018-03-07T21:47:13.338Z,7.50
2018-03-07T21:49:47.185Z,7.50
2018-03-07T21:52:21.042Z,7.60
2018-03-07T21:54:55.676Z,7.70
2018-03-07T21:57:29.290Z,7.70
2018-03-07T22:00:03.066Z,7.70
2018-03-07T22:02:36.647Z,7.60
2018-03-07T22:05:10.491Z,7.60
2018-03-07T22:07:44.198Z,7.60
2018-03-07T22:10:18.075Z,7.50
2018-03-07T22:12:52.437Z,7.50
2018-03-07T22:15:26.116Z,7.60
2018-03-07T22:17:59.828Z,7.60
2018-03-07T22:20:33.430Z,7.60
2018-03-07T22:23:07.059Z,7.60
2018-03-07T22:25:41.652Z,7.60
2018-03-07T22:28:15.692Z,7.60
2018-03-07T22:30:49.576Z,7.60
2018-03-07T22:33:24.036Z,7.60
2018-03-07T22:35:57.805Z,7.60
2018-03-07T22:38:32.214Z,7.60
2018-03-07T22:41:06.125Z,7.60
2018-03-07T22:43:40.551Z,7.60
2018-03-07T22:46:14.618Z,7.60
2018-03-07T22:48:49.214Z,7.60
2018-03-07T22:51:23.952Z,7.60
2018-03-07T22:53:58.830Z,7.60
2018-03-07T22:56:32.902Z,7.60
2018-03-07T22:59:06.794Z,7.60
2018-03-07T23:01:40.759Z,7.70
2018-03-07T23:04:14.322Z,7.60
2018-03-07T23:06:48.187Z,7.70
2018-03-07T23:09:21.765Z,7.70
2018-03-07T23:11:55.618Z,7.70
2018-03-07T23:14:29.300Z,7.80
2018-03-07T23:17:04.022Z,7.80
2018-03-07T23:19:38.201Z,7.70
2018-03-07T23:22:11.683Z,7.70
2018-03-07T23:24:46.128Z,7.70
2018-03-07T23:27:20.059Z,7.70
2018-03-07T23:29:53.678Z,7.70
2018-03-07T23:32:27.231Z,7.60
2018-03-07T23:35:01.064Z,7.60
2018-03-07T23:37:34.927Z,7.70
2018-03-07T23:40:09.451Z,7.70
2018-03-07T23:42:43.508Z,7.70
2018-03-07T23:45:17.125Z,7.70
2018-03-07T23:47:50.979Z,7.70
2018-03-07T23:50:25.426Z,7.80
2018-03-07T23:53:00.285Z,7.80
2018-03-07T23:55:34.262Z,7.80
2018-03-07T23:58:07.869Z,7.90
